Accueil
METAR-TAF:

METAR-TAF

Aéroports :

Nancy, France

Base aérienne 133 Nancy-Ochey

latitude: 48-35N, longitude: 005-58E, altitude: 336 m

Observation

Le bulletin a été fait il y a 43 minutes, à 01:00 UTC
Vent 3 kt de direction variable
Température 14°C
Humidité 88%
Pression 1020 hPa
Visibilité 10 km ou plus
pas de nuages en-dessous de 1500 mètres et pas de cumulonimbus.

METAR: LFSO 240100Z AUTO VRB03KT CAVOK 14/12 Q1020

Heure: 03:43 (01:43 UTC)

Prévision

Le bulletin a été fait il y a 17 heures et 43 minutes, à 08:00 UTC
Prévision valable du 23 à 09 UTC au 24 à 09 UTC
Vent 10 kt de ouest avec des rafales jusqu'à 20 kt
Visibilité 10 km ou plus
Nuages épars à une hauteur de 3000 ft
Evoluant progressivement
du 23 à 21 UTC au 23 à 23 UTC
Vent 2 kt de direction variable

TAF: LFSO 230800Z 2309/2409 27010G20KT 9999 SCT030 BECMG 2321/2323 VRB02KT

Observations et prévisions météorologiques de plus de 4000 aéroports (messages METAR et TAF).

Les stations disponibles sont représentées par des disques jaunes et rouges sur la carte.

Passer la souris dessus pour voir le nom de la station.

Cliquer dessus pour voir les observations et prévisions météorologiques.

Pour changer de carte: cliquez sur les boutons verts avec une croix noire pour zoomer, sur le bouton vert avec un tiret pour effectuer un zoom arrière, ou sur les flèches vertes pour les cartes adjacentes.


METAR-TAF: